»·PEaware :: N172SP KLAX-KSAN

N172SP :: KLAX-KSAN

FLIGHT INFORMATION

Flight Status: Arrived
Operator: Privately registered:
United States
More flights under this callsign
Pilot: Jaime C. (16908)
Aircraft: BOEING 737-800
(B738)
More flights by this aircraft type
Origin: KLAX Los Angeles Intl
United States
Destination: KSAN San Diego Intl-Lindbergh
United States
More flights between these airports :: More routes between these airports
Route: +
File this flight plan on PilotEdge
Remarks:
Altitude:
(Current/Filed)
75,800ft
Speed:
(Current/Filed)
0kts
Departed: 29-Nov-17 06:52 PM
Arrived: 29-Nov-17 07:54 PM
Distance/Time
Traveled:
95nm/1:01
Distance/Time
To Go:
Arrived

Flight Plot

Page will automatically refresh every two minutes.


Map Options




Map Legend


Flown Route
Filed Route
Departure Airport
Arrival Airport
Navaid (VOR, NDB)
Fix

Horizontal Profiles

Position Reports

Time Latitude Longitude Heading Altitude Ground
Speed
29-Nov-17 18:50 33.939030 -118.404381 79 133ft 3kts
29-Nov-17 18:51 33.939019 -118.404465 83 134ft 0kts
29-Nov-17 18:52 33.939019 -118.404465 83 134ft 0kts
29-Nov-17 18:53 33.939019 -118.404465 83 134ft 0kts
29-Nov-17 18:54 33.939019 -118.404465 83 134ft 0kts
29-Nov-17 18:55 33.939183 -118.403906 77 134ft 9kts
29-Nov-17 18:56 33.938608 -118.402799 152 133ft 11kts
29-Nov-17 18:57 33.938877 -118.399012 81 133ft 43kts
29-Nov-17 18:58 33.939467 -118.393318 83 133ft 40kts
29-Nov-17 18:59 33.939988 -118.388168 83 133ft 39kts
29-Nov-17 19:00 33.940633 -118.382147 83 133ft 5kts
29-Nov-17 19:01 33.940707 -118.381216 84 133ft 11kts
29-Nov-17 19:02 33.940441 -118.380295 144 133ft 17kts
29-Nov-17 19:03 33.939288 -118.385454 264 134ft 112kts
29-Nov-17 19:04 33.937103 -118.405665 264 738ft 210kts
29-Nov-17 19:05 33.934316 -118.445128 269 1978ft 236kts
29-Nov-17 19:06 33.932298 -118.490964 268 2865ft 239kts
29-Nov-17 19:07 33.928630 -118.538598 249 2981ft 242kts
29-Nov-17 19:08 33.890586 -118.557442 182 3010ft 255kts
29-Nov-17 19:09 33.839001 -118.556968 181 3361ft 307kts
29-Nov-17 19:10 33.784325 -118.552599 157 4872ft 317kts
29-Nov-17 19:11 33.750345 -118.503769 121 6328ft 326kts
29-Nov-17 19:12 33.721776 -118.447892 121 7454ft 333kts
29-Nov-17 19:13 33.693726 -118.393011 121 7497ft 331kts
29-Nov-17 19:14 33.665651 -118.338066 121 7499ft 333kts
29-Nov-17 19:15 33.635206 -118.278455 121 7492ft 348kts
29-Nov-17 19:16 33.606774 -118.222781 121 7484ft 297kts
29-Nov-17 19:17 33.580533 -118.171396 121 7499ft 288kts
29-Nov-17 19:18 33.554491 -118.120449 123 7498ft 288kts
29-Nov-17 19:19 33.522083 -118.074800 131 7500ft 288kts
29-Nov-17 19:20 33.483493 -118.021654 131 7499ft 288kts
29-Nov-17 19:21 33.444831 -117.968401 131 7500ft 288kts
29-Nov-17 19:22 33.412102 -117.924412 133 7500ft 288kts
29-Nov-17 19:23 33.377608 -117.879971 133 7500ft 288kts
29-Nov-17 19:24 33.342939 -117.835308 133 7500ft 288kts
29-Nov-17 19:25 33.308554 -117.791004 133 7500ft 288kts
29-Nov-17 19:26 33.273402 -117.747631 136 7501ft 288kts
29-Nov-17 19:27 33.245962 -117.715650 136 7500ft 288kts
29-Nov-17 19:28 33.212824 -117.677023 136 7500ft 288kts
29-Nov-17 19:29 33.178398 -117.636892 136 7501ft 288kts
29-Nov-17 19:30 33.142223 -117.594726 135 6453ft 291kts
29-Nov-17 19:31 33.107000 -117.558048 140 5178ft 273kts
29-Nov-17 19:32 33.073392 -117.524829 140 4998ft 251kts
29-Nov-17 19:33 33.041763 -117.491128 122 4981ft 252kts
29-Nov-17 19:34 33.020553 -117.449651 120 4992ft 252kts
29-Nov-17 19:35 33.000055 -117.409390 120 4992ft 252kts
29-Nov-17 19:36 32.980325 -117.370628 120 4992ft 252kts
29-Nov-17 19:37 32.961334 -117.333299 121 4990ft 252kts
29-Nov-17 19:38 32.941446 -117.297398 138 4974ft 251kts
29-Nov-17 19:39 32.910781 -117.274890 151 4417ft 250kts
29-Nov-17 19:40 32.879929 -117.253498 151 3791ft 247kts
29-Nov-17 19:41 32.850451 -117.233034 151 3149ft 234kts
29-Nov-17 19:42 32.823078 -117.213925 151 3019ft 198kts
29-Nov-17 19:43 32.805679 -117.189990 99 2999ft 191kts
29-Nov-17 19:44 32.804891 -117.159433 107 2847ft 193kts
29-Nov-17 19:45 32.796455 -117.129684 108 2994ft 183kts
29-Nov-17 19:46 32.788378 -117.101618 108 3020ft 171kts
29-Nov-17 19:47 32.782347 -117.073783 101 3000ft 172kts
29-Nov-17 19:48 32.778114 -117.050832 101 2999ft 172kts
29-Nov-17 19:49 32.766913 -117.026956 155 2978ft 161kts
29-Nov-17 19:50 32.746094 -117.029650 223 2993ft 144kts
29-Nov-17 19:51 32.734460 -117.047930 237 2599ft 140kts
29-Nov-17 19:52 32.724094 -117.066751 244 2151ft 137kts
29-Nov-17 19:53 32.720815 -117.086723 269 1881ft 127kts
29-Nov-17 19:54 32.720483 -117.108487 274 1647ft 138kts
29-Nov-17 19:55 32.721779 -117.130364 278 1247ft 135kts
29-Nov-17 19:56 32.724228 -117.151028 286 670ft 122kts
29-Nov-17 19:57 32.728664 -117.169961 287 286ft 116kts
29-Nov-17 19:58 32.733113 -117.187883 287 26ft 69kts
29-Nov-17 19:59 32.734516 -117.190852 23 25ft 13kts
29-Nov-17 20:00 32.734729 -117.190810 253 26ft 3kts
29-Nov-17 20:01 32.732393 -117.192418 208 26ft 17kts
29-Nov-17 20:02 32.732724 -117.194351 285 26ft 16kts
29-Nov-17 20:03 32.732871 -117.195438 276 25ft 4kts

Navigation Log

Ident Type
1. KLAX Airport
2. KSAN Airport